Time;durP1;ratioP1;P1;durP2;ratioP2;P2;SDS_P1;SDS_P2;PMS_P1;PMS_P2;Temp;Humidity;BMP_temperature;BMP_pressure;BME280_temperature;BME280_humidity;BME280_pressure;Samples;Min_cycle;Max_cycle;Signal;HPM_P1;HPM_P2
2023/05/07 00:02:00;;;;;;;4.70;3.70;;;15.00;98.30;;;;;;5067951;27;20473;-62
2023/05/07 00:04:27;;;;;;;4.70;3.20;;;15.00;98.50;;;;;;5093271;27;20492;-62
2023/05/07 00:06:55;;;;;;;3.67;3.37;;;15.00;98.40;;;;;;5094470;27;20480;-61
2023/05/07 00:09:21;;;;;;;4.50;3.80;;;15.00;98.20;;;;;;5065859;27;20774;-62
2023/05/07 00:11:48;;;;;;;3.60;3.30;;;14.80;98.60;;;;;;5084017;27;20882;-62
2023/05/07 00:14:15;;;;;;;4.30;3.80;;;14.80;98.50;;;;;;5070757;27;20481;-62
2023/05/07 00:16:41;;;;;;;4.43;4.07;;;14.70;99.20;;;;;;5095802;27;21021;-62
2023/05/07 00:19:09;;;;;;;5.40;4.60;;;14.40;99.90;;;;;;5077463;27;20523;-62
2023/05/07 00:21:36;;;;;;;6.93;4.40;;;14.30;99.90;;;;;;5071746;28;21060;-62
2023/05/07 00:24:03;;;;;;;6.03;4.60;;;14.30;99.90;;;;;;5074608;28;20487;-62
2023/05/07 00:26:30;;;;;;;4.10;3.70;;;14.40;99.90;;;;;;5070426;28;20482;-62
2023/05/07 00:28:57;;;;;;;4.13;3.77;;;14.50;99.70;;;;;;5071934;28;20540;-62
2023/05/07 00:31:23;;;;;;;4.50;3.53;;;14.50;99.40;;;;;;5091340;27;20984;-62
2023/05/07 00:33:50;;;;;;;8.80;4.23;;;14.40;99.60;;;;;;5072944;27;21021;-62
2023/05/07 00:36:18;;;;;;;6.13;3.87;;;14.30;99.90;;;;;;5083943;27;21048;-62
2023/05/07 00:38:45;;;;;;;11.67;4.70;;;14.10;99.90;;;;;;5072742;28;20999;-62
2023/05/07 00:41:11;;;;;;;6.50;3.80;;;13.90;99.90;;;;;;5074057;27;20472;-62
2023/05/07 00:43:38;;;;;;;5.23;4.40;;;13.90;99.90;;;;;;5080126;27;20521;-62
2023/05/07 00:46:05;;;;;;;5.27;3.90;;;14.00;99.90;;;;;;5087544;27;20922;-62
2023/05/07 00:48:32;;;;;;;6.33;3.97;;;14.10;99.90;;;;;;5072008;28;20993;-62
2023/05/07 00:50:59;;;;;;;3.83;3.53;;;14.10;99.80;;;;;;5077643;27;20475;-62
2023/05/07 00:53:27;;;;;;;4.13;3.70;;;14.20;99.90;;;;;;5083461;27;20734;-62
2023/05/07 00:55:54;;;;;;;4.97;4.00;;;14.20;99.90;;;;;;5097125;27;20482;-62
2023/05/07 00:58:22;;;;;;;5.50;4.93;;;14.20;99.50;;;;;;5080084;27;20913;-62
2023/05/07 01:00:48;;;;;;;5.00;4.07;;;14.20;99.10;;;;;;5083266;27;21053;-62
2023/05/07 01:03:15;;;;;;;4.00;3.70;;;14.20;99.00;;;;;;5072010;28;20838;-62
2023/05/07 01:05:43;;;;;;;5.03;4.17;;;14.20;99.10;;;;;;5056416;28;21067;-62
2023/05/07 01:08:11;;;;;;;5.20;4.40;;;14.20;99.10;;;;;;5060923;27;20492;-62
2023/05/07 01:10:42;;;;;;;6.07;4.40;;;14.20;99.00;;;;;;5088021;27;20545;-61
2023/05/07 01:13:09;;;;;;;3.87;3.50;;;14.10;99.20;;;;;;5091134;27;20477;-62
2023/05/07 01:15:36;;;;;;;4.53;4.00;;;14.10;99.30;;;;;;5092753;27;20468;-62
2023/05/07 01:18:03;;;;;;;5.87;4.43;;;14.10;98.80;;;;;;5075887;28;20742;-62
2023/05/07 01:20:31;;;;;;;3.80;3.50;;;14.10;99.10;;;;;;5068714;28;20887;-62
2023/05/07 01:22:59;;;;;;;3.90;3.33;;;14.00;98.80;;;;;;5073710;27;20592;-62
2023/05/07 01:25:26;;;;;;;4.80;4.37;;;13.90;99.00;;;;;;5072511;27;20622;-62
2023/05/07 01:27:53;;;;;;;4.33;4.03;;;13.90;98.70;;;;;;5073688;27;20480;-62
2023/05/07 01:30:22;;;;;;;4.30;3.90;;;13.90;98.70;;;;;;5071077;28;20474;-61
2023/05/07 01:32:52;;;;;;;5.50;4.00;;;13.90;98.80;;;;;;5071334;28;21048;-62
2023/05/07 01:35:22;;;;;;;7.60;4.00;;;13.90;98.60;;;;;;5067463;27;20769;-62
2023/05/07 01:37:50;;;;;;;18.93;5.33;;;13.80;98.70;;;;;;5089393;27;20933;-61
2023/05/07 01:40:18;;;;;;;7.23;5.10;;;13.80;99.10;;;;;;5069374;28;20936;-62
2023/05/07 01:42:46;;;;;;;5.40;4.20;;;13.80;99.00;;;;;;5068553;28;20470;-61
2023/05/07 01:45:13;;;;;;;4.50;4.10;;;13.70;98.70;;;;;;5084443;27;20507;-61
2023/05/07 01:47:40;;;;;;;4.87;3.37;;;13.70;98.90;;;;;;5071121;27;20492;-61
2023/05/07 01:50:09;;;;;;;4.43;3.80;;;13.60;98.80;;;;;;5097641;27;20494;-61
2023/05/07 01:52:37;;;;;;;8.30;3.93;;;13.50;98.80;;;;;;5092614;27;21064;-61
2023/05/07 01:55:04;;;;;;;4.10;3.70;;;13.50;98.80;;;;;;5073158;27;21022;-60
2023/05/07 01:57:32;;;;;;;5.17;4.03;;;13.40;98.80;;;;;;5070242;28;20500;-60
2023/05/07 01:59:59;;;;;;;7.33;4.17;;;13.30;98.80;;;;;;5061095;27;20474;-61
2023/05/07 02:02:26;;;;;;;4.70;3.80;;;13.30;99.10;;;;;;5095850;27;20978;-61
2023/05/07 02:04:52;;;;;;;7.00;4.47;;;13.20;99.20;;;;;;5080388;27;20526;-62
2023/05/07 02:07:19;;;;;;;5.20;4.40;;;13.20;99.30;;;;;;5071137;27;20519;-61
2023/05/07 02:09:46;;;;;;;4.73;4.07;;;13.30;99.20;;;;;;5088239;27;20478;-61
2023/05/07 02:12:12;;;;;;;18.50;4.47;;;13.30;99.10;;;;;;5072506;27;20859;-62
2023/05/07 02:14:40;;;;;;;4.40;4.00;;;13.30;99.20;;;;;;5069409;28;20859;-63
2023/05/07 02:17:07;;;;;;;6.90;5.20;;;13.30;99.40;;;;;;5082323;27;20469;-62
2023/05/07 02:19:35;;;;;;;5.10;4.70;;;13.20;99.10;;;;;;5087578;27;20967;-62
2023/05/07 02:22:01;;;;;;;5.10;4.47;;;13.20;99.00;;;;;;5069874;27;20488;-64
2023/05/07 02:24:28;;;;;;;4.37;3.97;;;13.30;99.00;;;;;;5067866;28;20693;-63
2023/05/07 02:26:55;;;;;;;5.13;4.30;;;13.30;99.00;;;;;;5081728;27;20592;-61
2023/05/07 02:29:21;;;;;;;6.40;3.83;;;13.20;99.80;;;;;;5067869;28;21053;-61
2023/05/07 02:31:50;;;;;;;4.57;4.10;;;13.20;99.50;;;;;;5078068;27;20888;-61
2023/05/07 02:34:17;;;;;;;5.40;4.33;;;13.20;99.30;;;;;;5083918;27;20563;-61
2023/05/07 02:36:44;;;;;;;10.57;4.13;;;13.30;99.00;;;;;;5081301;27;20510;-61
2023/05/07 02:39:10;;;;;;;4.27;3.73;;;13.20;99.00;;;;;;5060050;28;20544;-61
2023/05/07 02:41:37;;;;;;;4.73;4.30;;;13.10;99.10;;;;;;5085810;27;21015;-61
2023/05/07 02:44:04;;;;;;;4.47;4.07;;;13.10;99.00;;;;;;5068860;27;20479;-61
2023/05/07 02:46:31;;;;;;;4.63;4.10;;;13.10;99.30;;;;;;5087007;27;21075;-61
2023/05/07 02:48:59;;;;;;;3.67;3.37;;;13.10;99.30;;;;;;5093400;27;20486;-61
2023/05/07 02:51:26;;;;;;;8.70;5.10;;;13.00;99.00;;;;;;5069497;28;20594;-61
2023/05/07 02:53:53;;;;;;;3.30;3.00;;;12.90;98.90;;;;;;5068198;27;20489;-61
2023/05/07 02:56:20;;;;;;;3.80;3.40;;;12.90;98.80;;;;;;5062257;27;20476;-61
2023/05/07 02:58:47;;;;;;;3.60;3.30;;;12.80;98.70;;;;;;5080988;27;20485;-61
2023/05/07 03:01:14;;;;;;;6.63;4.83;;;12.80;98.90;;;;;;5083773;27;20485;-61
2023/05/07 03:03:41;;;;;;;7.43;5.00;;;12.80;98.80;;;;;;5071919;28;20482;-61
2023/05/07 03:06:09;;;;;;;6.20;4.17;;;12.80;99.10;;;;;;5089818;27;21023;-60
2023/05/07 03:08:36;;;;;;;8.00;5.27;;;12.80;99.20;;;;;;5070275;28;20501;-60
2023/05/07 03:11:03;;;;;;;5.80;4.30;;;12.80;99.00;;;;;;5080388;27;20514;-60
2023/05/07 03:13:30;;;;;;;4.83;4.43;;;12.80;99.20;;;;;;5075631;27;20818;-60
2023/05/07 03:15:56;;;;;;;4.87;4.47;;;12.90;99.00;;;;;;5071924;28;20485;-61
2023/05/07 03:18:23;;;;;;;4.87;4.00;;;12.80;98.90;;;;;;5072806;28;20642;-60
2023/05/07 03:20:50;;;;;;;4.63;4.27;;;12.80;99.00;;;;;;5065387;27;20869;-60
2023/05/07 03:23:18;;;;;;;7.57;3.67;;;12.80;98.90;;;;;;5100011;27;20596;-61
2023/05/07 03:25:44;;;;;;;10.10;4.83;;;12.80;98.80;;;;;;5066679;28;20489;-61
2023/05/07 03:28:11;;;;;;;5.20;3.90;;;12.80;98.30;;;;;;5073216;27;20975;-61
2023/05/07 03:30:38;;;;;;;3.90;3.60;;;12.80;98.60;;;;;;5082397;28;20967;-61
2023/05/07 03:33:04;;;;;;;6.50;4.00;;;12.70;98.70;;;;;;5084474;28;20847;-60
2023/05/07 03:35:31;;;;;;;4.60;4.20;;;12.70;98.70;;;;;;5088242;28;20491;-60
2023/05/07 03:37:58;;;;;;;3.83;3.53;;;12.70;98.80;;;;;;5074567;28;20493;-61
2023/05/07 03:40:26;;;;;;;4.07;3.67;;;12.60;98.60;;;;;;5067474;28;20485;-61
2023/05/07 03:42:53;;;;;;;4.70;4.10;;;12.60;98.50;;;;;;5086754;27;20841;-61
2023/05/07 03:45:19;;;;;;;6.00;4.10;;;12.60;98.60;;;;;;5076361;28;20509;-61
2023/05/07 03:47:46;;;;;;;4.60;4.13;;;12.60;98.50;;;;;;5083122;28;20477;-61
2023/05/07 03:50:13;;;;;;;6.27;4.20;;;12.60;98.50;;;;;;5073180;28;20479;-61
2023/05/07 03:52:40;;;;;;;4.63;3.80;;;12.60;98.40;;;;;;5072823;28;20516;-61
2023/05/07 03:55:07;;;;;;;4.60;4.20;;;12.60;98.60;;;;;;5073088;28;20470;-61
2023/05/07 03:57:35;;;;;;;4.40;4.00;;;12.70;98.50;;;;;;5090636;28;21021;-61
2023/05/07 04:00:03;;;;;;;4.50;3.73;;;12.70;98.50;;;;;;5077371;27;20900;-61
2023/05/07 04:02:30;;;;;;;5.77;4.67;;;12.60;98.70;;;;;;5066415;28;20578;-61
2023/05/07 04:04:56;;;;;;;13.40;4.53;;;12.60;98.40;;;;;;5075691;28;20539;-61
2023/05/07 04:07:23;;;;;;;4.40;3.70;;;12.60;98.40;;;;;;5082729;27;20913;-60
2023/05/07 04:09:50;;;;;;;4.00;3.20;;;12.60;98.40;;;;;;5078061;28;21038;-61
2023/05/07 04:12:16;;;;;;;4.70;3.40;;;12.60;98.40;;;;;;5091293;28;20961;-60
2023/05/07 04:14:45;;;;;;;3.80;3.50;;;12.60;98.30;;;;;;5080004;28;20884;-61
2023/05/07 04:17:12;;;;;;;4.20;3.80;;;12.50;98.60;;;;;;5078468;28;20884;-60
2023/05/07 04:19:38;;;;;;;5.10;4.00;;;12.40;98.60;;;;;;5089051;27;21031;-61
2023/05/07 04:22:05;;;;;;;5.00;3.90;;;12.40;99.00;;;;;;5078799;28;21038;-60
2023/05/07 04:24:33;;;;;;;4.60;4.20;;;12.30;99.20;;;;;;5098246;28;20473;-61
2023/05/07 04:26:59;;;;;;;4.73;4.23;;;12.10;99.40;;;;;;5077531;28;20541;-61
2023/05/07 04:29:27;;;;;;;4.60;4.20;;;12.10;99.80;;;;;;5082244;28;20501;-60
2023/05/07 04:31:56;;;;;;;5.43;3.83;;;12.20;99.60;;;;;;5081318;27;20572;-61
2023/05/07 04:34:22;;;;;;;7.80;4.17;;;12.20;99.50;;;;;;5083719;27;20479;-61
2023/05/07 04:36:49;;;;;;;6.47;5.00;;;12.30;99.40;;;;;;5072051;27;20573;-61
2023/05/07 04:39:16;;;;;;;4.60;4.20;;;12.30;99.30;;;;;;5096388;27;21031;-61
2023/05/07 04:41:42;;;;;;;7.10;4.43;;;12.40;99.50;;;;;;5093366;27;20477;-61
2023/05/07 04:44:09;;;;;;;7.00;4.20;;;12.50;99.60;;;;;;5095040;27;20478;-61
2023/05/07 04:46:36;;;;;;;7.87;4.93;;;12.50;99.60;;;;;;5095330;28;20489;-61
2023/05/07 04:49:04;;;;;;;6.90;4.00;;;12.60;99.70;;;;;;5092386;27;20486;-61
2023/05/07 04:51:32;;;;;;;4.43;3.87;;;12.60;99.60;;;;;;5066574;28;20809;-61
2023/05/07 04:53:59;;;;;;;6.00;4.60;;;12.60;99.60;;;;;;5091460;27;20482;-61
2023/05/07 04:56:29;;;;;;;4.33;3.97;;;12.60;99.70;;;;;;5078364;28;20565;-61
2023/05/07 04:58:55;;;;;;;6.43;4.03;;;12.60;99.90;;;;;;5074985;27;20562;-61
2023/05/07 05:01:22;;;;;;;5.10;4.30;;;12.70;99.90;;;;;;5086806;27;20470;-61
2023/05/07 05:03:49;;;;;;;5.63;5.03;;;12.70;99.90;;;;;;5076448;28;20896;-61
2023/05/07 05:06:17;;;;;;;7.80;5.50;;;12.80;99.90;;;;;;5078375;28;20542;-61
2023/05/07 05:08:43;;;;;;;6.20;4.77;;;12.80;99.90;;;;;;5065247;28;20872;-61
2023/05/07 05:11:10;;;;;;;6.00;4.30;;;12.90;99.90;;;;;;5086342;28;20510;-61
2023/05/07 05:13:37;;;;;;;7.40;4.20;;;12.90;99.90;;;;;;5074890;27;21043;-61
2023/05/07 05:16:03;;;;;;;5.80;5.30;;;12.90;99.90;;;;;;5078101;27;20486;-61
2023/05/07 05:18:30;;;;;;;6.03;5.43;;;13.00;99.90;;;;;;5100001;27;21099;-61
2023/05/07 05:20:57;;;;;;;5.93;5.20;;;13.10;99.90;;;;;;5076956;28;20477;-62
2023/05/07 05:23:25;;;;;;;5.60;5.10;;;13.10;99.90;;;;;;5056940;28;22831;-61
2023/05/07 05:25:56;;;;;;;5.17;4.40;;;12.90;99.90;;;;;;5080424;28;20481;-61
2023/05/07 05:28:23;;;;;;;5.90;4.70;;;12.80;99.90;;;;;;5058641;28;20743;-61
2023/05/07 05:30:50;;;;;;;4.17;3.77;;;12.70;99.90;;;;;;5086280;27;20866;-60
2023/05/07 05:33:16;;;;;;;7.63;5.60;;;12.80;99.90;;;;;;5093387;27;20484;-61
2023/05/07 05:35:43;;;;;;;7.70;5.47;;;12.90;99.90;;;;;;5083395;27;20493;-60
2023/05/07 05:38:10;;;;;;;9.00;5.50;;;12.90;99.90;;;;;;5108093;27;20490;-61
2023/05/07 05:40:38;;;;;;;5.90;5.40;;;13.00;99.90;;;;;;5087758;28;20793;-61
2023/05/07 05:43:04;;;;;;;7.67;6.23;;;13.00;99.90;;;;;;5082893;28;20493;-61
2023/05/07 05:45:31;;;;;;;9.10;6.30;;;13.20;99.90;;;;;;5083763;27;20525;-61
2023/05/07 05:47:58;;;;;;;7.40;6.10;;;13.30;99.90;;;;;;5079864;27;20494;-60
2023/05/07 05:50:24;;;;;;;6.57;5.87;;;13.30;99.90;;;;;;5069867;28;20489;-60
2023/05/07 05:52:51;;;;;;;7.47;6.77;;;13.60;99.90;;;;;;5065770;28;20485;-61
2023/05/07 05:55:18;;;;;;;7.90;6.07;;;13.70;99.90;;;;;;5065082;28;20478;-61
2023/05/07 05:57:46;;;;;;;6.83;6.23;;;13.80;99.90;;;;;;5074859;28;20950;-61
2023/05/07 06:00:13;;;;;;;7.70;6.30;;;14.00;99.90;;;;;;5057577;28;20938;-61
2023/05/07 06:02:40;;;;;;;6.53;5.93;;;14.20;99.90;;;;;;5053313;28;20474;-60
2023/05/07 06:05:07;;;;;;;7.50;6.80;;;14.30;99.90;;;;;;5082391;27;20489;-61
2023/05/07 06:07:34;;;;;;;8.10;7.30;;;14.40;99.90;;;;;;5091908;27;20526;-61
2023/05/07 06:10:01;;;;;;;6.50;5.90;;;14.60;99.90;;;;;;5105164;27;20890;-60
2023/05/07 06:12:28;;;;;;;8.27;7.40;;;14.70;99.90;;;;;;5083204;27;20472;-61
2023/05/07 06:14:56;;;;;;;9.30;7.50;;;14.90;99.90;;;;;;5110807;27;20487;-61
2023/05/07 06:17:22;;;;;;;9.03;7.50;;;15.00;99.90;;;;;;5098834;27;20510;-61
2023/05/07 06:19:49;;;;;;;7.23;6.60;;;15.40;99.90;;;;;;5078221;28;20481;-61
2023/05/07 06:22:16;;;;;;;11.23;10.03;;;15.50;99.90;;;;;;5068634;28;20483;-61
2023/05/07 06:24:42;;;;;;;11.30;8.47;;;15.90;99.90;;;;;;5061816;28;20485;-61
2023/05/07 06:27:09;;;;;;;9.23;8.03;;;16.00;99.90;;;;;;5079346;27;20485;-61
2023/05/07 06:29:36;;;;;;;9.23;8.00;;;16.30;99.90;;;;;;5090749;28;20804;-61
2023/05/07 06:32:11;;;;;;;14.43;7.83;;;16.40;99.90;;;;;;5077952;28;20477;-62
2023/05/07 06:34:38;;;;;;;9.90;7.93;;;16.40;99.90;;;;;;5078600;28;20568;-62
2023/05/07 06:37:04;;;;;;;8.77;7.53;;;16.60;99.90;;;;;;5058509;28;21179;-62
2023/05/07 06:39:31;;;;;;;11.30;7.97;;;16.70;99.90;;;;;;5076913;28;20794;-61
2023/05/07 06:41:58;;;;;;;7.97;6.70;;;16.80;99.90;;;;;;5077888;28;20504;-61
2023/05/07 06:44:25;;;;;;;12.07;7.30;;;16.80;99.90;;;;;;5075781;27;20485;-61
2023/05/07 06:46:52;;;;;;;7.57;6.87;;;16.90;99.90;;;;;;5091148;27;20476;-62
2023/05/07 06:49:20;;;;;;;8.00;7.03;;;17.20;99.90;;;;;;5078913;27;20489;-62
2023/05/07 06:51:46;;;;;;;8.83;7.17;;;17.40;99.90;;;;;;5075282;28;20482;-61
2023/05/07 06:54:13;;;;;;;8.03;7.23;;;17.70;99.90;;;;;;5079259;28;20480;-62
2023/05/07 06:56:40;;;;;;;8.47;6.40;;;17.90;99.90;;;;;;5079042;28;20493;-62
2023/05/07 06:59:07;;;;;;;7.87;6.30;;;18.20;99.90;;;;;;5084046;28;20483;-62
2023/05/07 07:01:34;;;;;;;7.37;5.63;;;18.50;99.90;;;;;;5068524;28;21086;-62
2023/05/07 07:04:00;;;;;;;9.87;6.67;;;18.80;99.90;;;;;;5073209;28;20886;-62
2023/05/07 07:06:29;;;;;;;8.70;6.47;;;19.10;99.90;;;;;;5078311;28;20481;-62
2023/05/07 07:08:56;;;;;;;9.40;5.67;;;19.40;99.90;;;;;;5083058;28;20578;-62
2023/05/07 07:11:22;;;;;;;6.80;6.20;;;19.50;99.90;;;;;;5096013;28;20481;-62
2023/05/07 07:13:50;;;;;;;7.20;6.00;;;19.70;99.90;;;;;;5068051;27;20897;-62
2023/05/07 07:16:17;;;;;;;7.60;5.47;;;19.70;99.90;;;;;;5072977;28;20572;-62
2023/05/07 07:18:43;;;;;;;7.30;5.60;;;19.80;99.90;;;;;;5093785;27;20717;-62
2023/05/07 07:21:10;;;;;;;9.20;6.07;;;19.90;99.70;;;;;;5067446;28;20488;-63
2023/05/07 07:23:38;;;;;;;9.60;8.53;;;20.00;99.90;;;;;;5065282;28;20566;-62
2023/05/07 07:26:06;;;;;;;28.60;17.60;;;20.10;99.90;;;;;;5070306;28;20485;-62
2023/05/07 07:28:33;;;;;;;6.80;4.97;;;20.20;99.50;;;;;;5069081;27;21242;-64
2023/05/07 07:30:59;;;;;;;7.37;5.77;;;20.30;98.90;;;;;;5099919;27;20900;-62
2023/05/07 07:33:26;;;;;;;5.20;4.80;;;20.40;98.60;;;;;;5091334;27;20739;-63
2023/05/07 07:35:53;;;;;;;6.80;4.67;;;20.80;97.60;;;;;;5093802;27;20950;-63
2023/05/07 07:38:20;;;;;;;4.60;4.20;;;20.90;97.90;;;;;;5083344;28;21073;-63
2023/05/07 07:40:49;;;;;;;8.03;4.50;;;21.20;97.90;;;;;;5089002;27;20486;-63
2023/05/07 07:43:16;;;;;;;5.63;4.23;;;21.20;97.60;;;;;;5072328;28;20513;-63
2023/05/07 07:45:43;;;;;;;6.00;4.93;;;21.40;97.50;;;;;;5087469;27;20474;-63
2023/05/07 07:48:10;;;;;;;6.80;5.10;;;21.50;96.80;;;;;;5086338;27;21094;-63
2023/05/07 07:50:37;;;;;;;4.53;4.13;;;21.60;97.20;;;;;;5085585;27;20831;-61
2023/05/07 07:53:03;;;;;;;6.00;4.40;;;21.90;96.60;;;;;;5076093;28;20990;-61
2023/05/07 07:55:31;;;;;;;4.47;4.07;;;21.90;96.70;;;;;;5076930;28;20504;-63
2023/05/07 07:57:59;;;;;;;4.30;3.90;;;22.00;96.20;;;;;;5075998;28;20477;-63
2023/05/07 08:00:25;;;;;;;4.83;4.40;;;22.10;96.70;;;;;;5094405;28;20866;-63
2023/05/07 08:02:52;;;;;;;7.07;4.00;;;22.30;97.20;;;;;;5055917;28;20883;-63
2023/05/07 08:05:19;;;;;;;5.80;4.10;;;22.60;96.50;;;;;;5080432;27;21074;-63
2023/05/07 08:07:51;;;;;;;11.43;4.23;;;23.00;96.10;;;;;;5080448;27;20470;-63
2023/05/07 08:10:20;;;;;;;7.73;4.53;;;23.00;96.30;;;;;;5067223;28;20512;-64
2023/05/07 08:12:47;;;;;;;5.40;4.30;;;23.00;94.30;;;;;;5082149;27;20493;-63
2023/05/07 08:15:16;;;;;;;6.40;4.27;;;23.10;95.10;;;;;;5086260;28;20494;-63
2023/05/07 08:17:43;;;;;;;5.03;3.70;;;23.30;95.50;;;;;;5081185;28;20556;-63
2023/05/07 08:20:11;;;;;;;5.47;4.40;;;23.50;96.00;;;;;;5074193;28;20470;-64
2023/05/07 08:22:37;;;;;;;4.50;3.80;;;23.50;95.60;;;;;;5076683;28;20467;-63
2023/05/07 08:25:05;;;;;;;6.20;4.30;;;23.70;94.80;;;;;;5077010;27;20497;-63
2023/05/07 08:27:31;;;;;;;5.13;3.80;;;23.70;94.50;;;;;;5080969;27;20474;-64
2023/05/07 08:29:58;;;;;;;4.20;3.90;;;23.80;94.50;;;;;;5080004;28;20478;-64
2023/05/07 08:32:27;;;;;;;4.13;3.83;;;23.80;93.80;;;;;;5091792;27;20530;-64
2023/05/07 08:34:54;;;;;;;5.40;4.10;;;23.90;94.40;;;;;;5097572;27;20554;-64
2023/05/07 08:37:21;;;;;;;4.87;4.20;;;24.00;94.40;;;;;;5086655;27;20473;-63
2023/05/07 08:39:49;;;;;;;5.53;3.50;;;24.00;94.30;;;;;;5094164;27;21111;-63
2023/05/07 08:42:17;;;;;;;4.43;4.03;;;23.90;93.40;;;;;;5072055;28;20490;-63
2023/05/07 08:44:46;;;;;;;5.60;4.37;;;24.10;94.60;;;;;;5063419;28;20470;-63
2023/05/07 08:47:13;;;;;;;4.77;4.10;;;24.00;94.00;;;;;;5077199;27;20569;-64
2023/05/07 08:49:41;;;;;;;4.50;4.20;;;24.40;94.40;;;;;;5088559;27;20502;-64
2023/05/07 08:52:08;;;;;;;6.13;3.40;;;24.40;94.70;;;;;;5077212;28;20749;-64
2023/05/07 08:54:37;;;;;;;5.80;4.20;;;24.70;94.60;;;;;;5080979;27;20477;-64
2023/05/07 08:57:03;;;;;;;4.67;4.27;;;24.80;93.90;;;;;;5083305;28;20472;-64
2023/05/07 08:59:30;;;;;;;3.57;3.27;;;24.80;94.00;;;;;;5070842;28;20483;-64
2023/05/07 09:01:57;;;;;;;4.80;4.27;;;25.00;94.00;;;;;;5047497;28;20548;-64
2023/05/07 09:04:24;;;;;;;4.67;3.83;;;25.10;93.80;;;;;;5067601;28;21043;-63
2023/05/07 09:06:52;;;;;;;6.07;4.20;;;25.40;94.10;;;;;;5074082;28;20484;-64
2023/05/07 09:09:19;;;;;;;4.27;3.87;;;25.60;92.70;;;;;;5064945;27;20480;-64
2023/05/07 09:11:45;;;;;;;4.80;4.23;;;25.60;91.90;;;;;;5086733;27;20498;-64
2023/05/07 09:14:12;;;;;;;4.60;4.20;;;25.20;91.30;;;;;;5077345;28;20557;-64
2023/05/07 09:16:39;;;;;;;6.60;4.30;;;25.10;91.40;;;;;;5071672;27;20665;-64
2023/05/07 09:19:06;;;;;;;7.57;4.60;;;24.90;91.70;;;;;;5086444;27;20483;-64
2023/05/07 09:21:33;;;;;;;6.33;3.80;;;24.30;92.00;;;;;;5093239;28;20539;-64
2023/05/07 09:24:01;;;;;;;5.83;4.87;;;24.20;92.80;;;;;;5077549;28;20483;-64
2023/05/07 09:26:28;;;;;;;3.83;3.53;;;24.20;92.70;;;;;;5110753;27;20478;-64
2023/05/07 09:28:54;;;;;;;4.37;4.00;;;24.20;93.70;;;;;;5068787;27;20542;-63
2023/05/07 09:31:23;;;;;;;5.17;4.03;;;24.40;93.00;;;;;;5099209;27;20457;-64
2023/05/07 09:33:49;;;;;;;5.13;4.20;;;24.40;92.30;;;;;;5090483;27;20495;-64
2023/05/07 09:36:17;;;;;;;3.93;3.63;;;24.60;92.20;;;;;;5062607;28;20482;-64
2023/05/07 09:39:41;;;;;;;4.13;3.80;;;24.70;91.70;;;;;;5108928;27;21170;-64
2023/05/07 09:42:12;;;;;;;5.83;4.80;;;24.90;93.90;;;;;;5082943;28;20673;-64
2023/05/07 09:44:39;;;;;;;5.30;4.80;;;24.90;93.10;;;;;;5082891;28;20491;-64
2023/05/07 09:47:07;;;;;;;5.47;4.83;;;24.90;92.80;;;;;;5084658;27;20479;-64
2023/05/07 09:49:38;;;;;;;4.73;4.33;;;24.80;91.70;;;;;;5078409;27;20478;-65
2023/05/07 09:52:09;;;;;;;4.73;4.33;;;25.00;92.80;;;;;;5061187;28;20560;-65
2023/05/07 09:54:38;;;;;;;5.87;5.37;;;25.30;93.70;;;;;;5074777;27;20474;-65
2023/05/07 09:57:06;;;;;;;4.53;4.13;;;25.60;92.00;;;;;;5079559;27;20492;-65
2023/05/07 09:59:36;;;;;;;7.50;4.30;;;25.90;93.40;;;;;;5067451;27;21215;-65
2023/05/07 10:02:04;;;;;;;7.00;4.40;;;26.20;92.80;;;;;;5089975;27;20914;-65
2023/05/07 10:04:32;;;;;;;4.73;4.33;;;26.40;92.60;;;;;;5070883;28;20472;-65
2023/05/07 10:06:59;;;;;;;7.13;4.27;;;26.60;92.20;;;;;;5069824;28;20495;-64
2023/05/07 10:09:27;;;;;;;4.40;3.50;;;26.60;92.50;;;;;;5097615;27;20669;-65
2023/05/07 10:11:55;;;;;;;4.93;4.47;;;26.60;90.20;;;;;;5065437;27;20871;-65
2023/05/07 10:14:22;;;;;;;4.77;3.97;;;26.30;93.00;;;;;;5077481;28;20885;-65
2023/05/07 10:16:50;;;;;;;4.50;4.10;;;26.40;92.00;;;;;;5062939;28;21049;-64
2023/05/07 10:19:18;;;;;;;5.17;3.60;;;26.60;92.10;;;;;;5076898;28;20488;-64
2023/05/07 10:21:49;;;;;;;5.80;3.87;;;26.80;91.80;;;;;;5070085;28;20480;-64
2023/05/07 10:24:22;;;;;;;6.57;3.57;;;27.00;91.40;;;;;;5071227;27;20943;-65
2023/05/07 10:26:53;;;;;;;3.80;3.50;;;27.30;90.80;;;;;;5078429;27;20599;-65
2023/05/07 10:29:29;;;;;;;5.00;3.50;;;27.30;88.50;;;;;;5082778;27;20944;-65
2023/05/07 10:32:06;;;;;;;3.90;3.37;;;27.40;90.50;;;;;;5073194;27;20461;-65
2023/05/07 10:34:38;;;;;;;3.70;3.40;;;27.50;90.30;;;;;;5097091;27;20500;-65
2023/05/07 10:37:05;;;;;;;4.53;3.60;;;27.50;88.60;;;;;;5092869;28;20903;-64
2023/05/07 10:39:32;;;;;;;5.20;3.93;;;27.50;88.90;;;;;;5073674;28;20473;-64
2023/05/07 10:42:08;;;;;;;5.77;3.67;;;27.60;90.40;;;;;;5100542;27;20454;-64
2023/05/07 10:44:37;;;;;;;4.13;3.73;;;27.60;89.40;;;;;;5087023;27;20508;-64
2023/05/07 10:47:09;;;;;;;3.70;3.23;;;27.60;89.70;;;;;;5082283;28;20804;-64
2023/05/07 10:49:37;;;;;;;4.17;3.77;;;27.10;88.60;;;;;;5072464;27;20780;-64
2023/05/07 10:52:15;;;;;;;4.67;3.77;;;27.10;89.20;;;;;;5085928;28;20463;-63
2023/05/07 10:54:42;;;;;;;3.80;3.60;;;27.10;89.70;;;;;;5061917;28;20480;-64
2023/05/07 10:57:35;;;;;;;3.10;2.90;;;27.20;90.20;;;;;;5107406;27;20488;-64
2023/05/07 11:00:02;;;;;;;3.80;3.33;;;27.00;88.90;;;;;;5080616;28;20599;-64
2023/05/07 11:03:06;;;;;;;3.40;3.07;;;26.70;89.20;;;;;;5075905;28;21079;-64
2023/05/07 11:05:34;;;;;;;6.63;3.13;;;26.50;88.60;;;;;;5066334;28;20482;-64
2023/05/07 11:08:02;;;;;;;5.30;3.40;;;26.40;89.10;;;;;;5075473;28;20465;-64
2023/05/07 11:10:50;;;;;;;4.60;3.00;;;26.40;89.50;;;;;;5075010;27;20484;-64
2023/05/07 11:13:18;;;;;;;6.60;3.43;;;26.10;87.60;;;;;;5083297;28;20682;-64
2023/05/07 11:15:46;;;;;;;4.83;3.03;;;26.10;87.40;;;;;;5100716;27;20990;-64
2023/05/07 11:18:15;;;;;;;2.90;2.60;;;26.00;87.30;;;;;;5075354;27;20455;-64
2023/05/07 11:21:00;;;;;;;4.33;2.87;;;25.80;89.20;;;;;;5076330;27;20493;-64
2023/05/07 11:24:09;;;;;;;6.67;3.40;;;25.30;87.20;;;;;;5074994;28;20487;-64
2023/05/07 11:26:48;;;;;;;3.30;3.00;;;25.10;86.60;;;;;;5065671;28;20589;-64
2023/05/07 11:29:17;;;;;;;3.97;3.50;;;24.90;89.80;;;;;;5072808;28;20471;-64
2023/05/07 11:31:44;;;;;;;5.13;2.70;;;24.90;90.30;;;;;;5051242;28;20825;-65
2023/05/07 11:34:12;;;;;;;4.03;3.73;;;24.90;90.50;;;;;;5096286;27;20463;-65
2023/05/07 11:36:44;;;;;;;4.27;3.70;;;24.70;91.20;;;;;;5102707;27;20825;-64
2023/05/07 11:39:28;;;;;;;3.43;3.23;;;24.80;91.00;;;;;;5085547;28;21048;-64
2023/05/07 11:41:55;;;;;;;3.23;2.93;;;24.90;91.40;;;;;;5072122;28;20494;-64
2023/05/07 11:44:21;;;;;;;3.40;2.80;;;24.80;91.00;;;;;;5084064;27;20478;-65
2023/05/07 11:46:49;;;;;;;3.67;3.30;;;24.30;90.50;;;;;;5078840;28;20868;-65
2023/05/07 11:49:18;;;;;;;3.23;2.87;;;23.90;91.10;;;;;;5077498;27;20747;-64
2023/05/07 11:51:46;;;;;;;2.40;2.20;;;23.70;91.50;;;;;;5094127;27;21015;-65
2023/05/07 11:54:16;;;;;;;3.13;2.77;;;23.60;92.20;;;;;;5082426;27;20525;-65
2023/05/07 11:56:44;;;;;;;4.63;2.80;;;23.40;91.80;;;;;;5072478;28;20807;-65
2023/05/07 11:59:11;;;;;;;3.30;2.70;;;23.40;92.00;;;;;;5085473;27;20847;-64
2023/05/07 12:01:38;;;;;;;3.13;2.83;;;23.20;91.90;;;;;;5093055;27;20467;-65
2023/05/07 12:04:05;;;;;;;7.03;2.90;;;23.30;92.30;;;;;;5075692;27;20478;-64
2023/05/07 12:06:38;;;;;;;3.80;3.37;;;23.20;93.00;;;;;;5065327;27;21116;-66
2023/05/07 12:09:07;;;;;;;3.00;2.80;;;23.30;92.50;;;;;;5077932;27;20510;-66
2023/05/07 12:11:34;;;;;;;3.33;3.03;;;23.20;92.80;;;;;;5089035;28;20842;-64
2023/05/07 12:14:01;;;;;;;3.23;2.93;;;23.20;92.50;;;;;;5085787;28;21006;-64
2023/05/07 12:16:28;;;;;;;3.40;3.10;;;22.90;92.40;;;;;;5076671;28;20559;-65
2023/05/07 12:18:55;;;;;;;4.00;2.87;;;23.00;92.90;;;;;;5076846;27;20486;-64
2023/05/07 12:21:24;;;;;;;5.40;3.60;;;22.70;92.80;;;;;;5082552;27;20648;-65
2023/05/07 12:23:52;;;;;;;3.70;3.37;;;22.30;92.90;;;;;;5076227;27;20565;-64
2023/05/07 12:26:21;;;;;;;7.67;3.83;;;22.00;93.40;;;;;;5088079;27;20484;-64
2023/05/07 12:28:48;;;;;;;7.20;4.20;;;21.80;94.10;;;;;;5083124;27;20558;-64
2023/05/07 12:31:15;;;;;;;4.77;4.07;;;21.50;94.40;;;;;;5071314;28;20483;-65
2023/05/07 12:33:42;;;;;;;5.70;5.10;;;21.50;94.70;;;;;;5073223;28;20578;-64
2023/05/07 12:36:09;;;;;;;6.20;5.03;;;21.40;95.10;;;;;;5065820;28;20923;-64
2023/05/07 12:38:38;;;;;;;5.93;5.13;;;21.40;95.80;;;;;;5084076;28;20493;-64
2023/05/07 12:41:07;;;;;;;6.13;5.63;;;21.20;96.20;;;;;;5080978;27;20483;-64
2023/05/07 12:43:34;;;;;;;6.23;5.80;;;21.00;96.50;;;;;;5057072;27;20479;-65
2023/05/07 12:46:02;;;;;;;6.70;6.10;;;20.80;96.80;;;;;;5117142;27;20474;-64
2023/05/07 12:48:29;;;;;;;9.73;7.03;;;20.90;97.10;;;;;;5075612;28;20475;-64
2023/05/07 12:50:57;;;;;;;6.87;6.27;;;21.00;97.50;;;;;;5074793;27;20872;-64